Accueil
METAR-TAF:

METAR-TAF

Aéroports :

Shageluk, Alaska, États-Unis

latitude: 62-41-32N, longitude: 159-34-09W, altitude: 24 m

Observation

Le bulletin a été fait il y a 24 minutes, à 10:56 UTC
Vent 8 kt de nord/nord-est
Température -24°C
Humidité 83%
Pression 1010 hPa
Visibilité: 16.1 km
Quelques nuages à une hauteur de 4700 ft

METAR: PAHX 181056Z AUTO 03008KT 10SM FEW047 M24/M26 A2982 RMK AO2 SLP101 T12391261 PWINO FZRANO

Heure: 02:20 (11:20 UTC)


TAF: absent

Observations et prévisions météorologiques de plus de 4000 aéroports (messages METAR et TAF).

Les stations disponibles sont représentées par des disques jaunes et rouges sur la carte.

Passer la souris dessus pour voir le nom de la station.

Cliquer dessus pour voir les observations et prévisions météorologiques.

Pour changer de carte: cliquez sur les boutons verts avec une croix noire pour zoomer, sur le bouton vert avec un tiret pour effectuer un zoom arrière, ou sur les flèches vertes pour les cartes adjacentes.


METAR-TAF: